Time;durP1;ratioP1;P1;durP2;ratioP2;P2;SDS_P1;SDS_P2;PMS_P1;PMS_P2;Temp;Humidity;BMP_temperature;BMP_pressure;BME280_temperature;BME280_humidity;BME280_pressure;Samples;Min_cycle;Max_cycle;Signal;HPM_P1;HPM_P2
2023/01/26 00:00:52;;;;;;;67.88;32.05;;;0.70;99.90;;;;;;5090057;28;20157;-70
2023/01/26 00:03:18;;;;;;;66.22;32.92;;;0.70;99.90;;;;;;5093725;28;20036;-69
2023/01/26 00:05:44;;;;;;;69.88;31.60;;;0.70;99.90;;;;;;5098342;28;20614;-69
2023/01/26 00:08:11;;;;;;;73.20;33.15;;;0.70;99.90;;;;;;5101497;28;20192;-69
2023/01/26 00:10:38;;;;;;;68.75;31.38;;;0.60;99.90;;;;;;5093273;28;20060;-69
2023/01/26 00:13:04;;;;;;;65.72;30.92;;;0.70;99.90;;;;;;5095055;28;20111;-69
2023/01/26 00:15:36;;;;;;;69.10;31.52;;;0.60;99.90;;;;;;5096361;28;20036;-69
2023/01/26 00:18:02;;;;;;;65.55;30.35;;;0.60;99.90;;;;;;5097821;28;20032;-69
2023/01/26 00:20:29;;;;;;;60.88;28.33;;;0.60;99.90;;;;;;5100078;28;20036;-70
2023/01/26 00:22:55;;;;;;;66.70;30.15;;;0.50;99.90;;;;;;5093805;28;20123;-69
2023/01/26 00:25:21;;;;;;;61.17;28.65;;;0.60;99.90;;;;;;5083672;28;20588;-69
2023/01/26 00:27:46;;;;;;;68.43;28.80;;;0.50;99.90;;;;;;5067731;28;20025;-69
2023/01/26 00:30:13;;;;;;;61.80;29.92;;;0.50;99.90;;;;;;5072727;28;20480;-69
2023/01/26 00:32:38;;;;;;;70.63;31.30;;;0.40;99.90;;;;;;5071976;28;20100;-68
2023/01/26 00:35:05;;;;;;;68.90;31.10;;;0.40;99.90;;;;;;5073463;28;20537;-69
2023/01/26 00:37:31;;;;;;;71.28;31.15;;;0.40;99.90;;;;;;5074511;28;20024;-69
2023/01/26 00:39:56;;;;;;;64.50;29.98;;;0.30;99.90;;;;;;5073844;28;20489;-69
2023/01/26 00:42:23;;;;;;;66.50;28.10;;;0.30;99.90;;;;;;5070036;28;20036;-69
2023/01/26 00:44:49;;;;;;;69.43;30.45;;;0.30;99.90;;;;;;5071967;28;20035;-69
2023/01/26 00:47:15;;;;;;;60.08;28.98;;;0.30;99.90;;;;;;5070488;28;20031;-69
2023/01/26 00:49:40;;;;;;;65.32;30.77;;;0.50;99.90;;;;;;5072828;28;20454;-68
2023/01/26 00:52:06;;;;;;;65.40;31.23;;;0.40;99.90;;;;;;5074174;28;20366;-69
2023/01/26 00:54:32;;;;;;;59.88;26.90;;;0.30;99.90;;;;;;5071512;28;20032;-69
2023/01/26 00:56:57;;;;;;;63.85;29.38;;;0.30;99.90;;;;;;5071011;28;20036;-69
2023/01/26 00:59:23;;;;;;;61.67;28.08;;;0.30;99.90;;;;;;5068706;28;20021;-69
2023/01/26 01:01:49;;;;;;;64.53;29.20;;;0.30;99.90;;;;;;5069324;28;20098;-69
2023/01/26 01:04:15;;;;;;;62.95;29.38;;;0.20;99.90;;;;;;5072506;28;21591;-69
2023/01/26 01:06:41;;;;;;;57.78;27.15;;;0.20;99.90;;;;;;5053702;28;20081;-69
2023/01/26 01:09:07;;;;;;;55.22;26.02;;;0.30;99.90;;;;;;5070064;28;20024;-69
2023/01/26 01:11:32;;;;;;;56.53;25.92;;;0.30;99.90;;;;;;5073493;28;20109;-68
2023/01/26 01:13:58;;;;;;;61.88;27.10;;;0.30;99.90;;;;;;5069950;28;20051;-68
2023/01/26 01:16:24;;;;;;;58.15;27.88;;;0.40;99.90;;;;;;5072161;28;20469;-69
2023/01/26 01:18:56;;;;;;;69.40;30.05;;;0.40;99.90;;;;;;5067732;28;20020;-68
2023/01/26 01:21:22;;;;;;;60.25;28.35;;;0.30;99.90;;;;;;5069787;28;20424;-68
2023/01/26 01:23:48;;;;;;;60.72;27.98;;;0.30;99.90;;;;;;5069791;28;20031;-69
2023/01/26 01:26:15;;;;;;;56.50;27.17;;;0.30;99.90;;;;;;5070524;28;20052;-68
2023/01/26 01:28:42;;;;;;;60.05;28.17;;;0.20;99.90;;;;;;5071143;28;20052;-69
2023/01/26 01:31:13;;;;;;;65.38;28.08;;;0.20;99.90;;;;;;5072461;28;20032;-69
2023/01/26 01:33:39;;;;;;;65.70;28.15;;;0.20;99.90;;;;;;5068081;28;20107;-69
2023/01/26 01:36:08;;;;;;;60.10;28.48;;;0.20;99.90;;;;;;5071806;28;20123;-69
2023/01/26 01:38:34;;;;;;;60.13;27.53;;;0.20;99.90;;;;;;5070004;28;20029;-69
2023/01/26 01:41:00;;;;;;;61.05;27.23;;;0.30;99.90;;;;;;5071140;28;20039;-68
2023/01/26 01:43:27;;;;;;;61.00;26.95;;;0.30;99.90;;;;;;5071879;28;20025;-69
2023/01/26 01:45:53;;;;;;;61.35;28.10;;;0.20;99.90;;;;;;5071108;28;20251;-69
2023/01/26 01:48:57;;;;;;;61.25;26.70;;;0.30;99.90;;;;;;5071600;28;20039;-69
2023/01/26 01:51:34;;;;;;;66.55;28.02;;;0.40;99.90;;;;;;5062104;28;20082;-68
2023/01/26 01:54:07;;;;;;;63.17;27.08;;;0.30;99.90;;;;;;5070076;28;20078;-69
2023/01/26 01:56:34;;;;;;;65.30;28.85;;;0.30;99.90;;;;;;5069269;28;20041;-69
2023/01/26 01:59:03;;;;;;;65.85;28.40;;;0.20;99.90;;;;;;5068803;28;20034;-69
2023/01/26 02:01:29;;;;;;;66.50;27.30;;;0.20;99.90;;;;;;5070788;28;20039;-69
2023/01/26 02:03:58;;;;;;;70.57;28.15;;;0.20;99.90;;;;;;5072108;28;20831;-69
2023/01/26 02:06:39;;;;;;;61.93;26.60;;;0.10;99.90;;;;;;5069787;28;20115;-69
2023/01/26 02:09:06;;;;;;;58.67;25.25;;;0.10;99.90;;;;;;5069825;28;20032;-69
2023/01/26 02:11:43;;;;;;;62.85;27.10;;;0.10;99.90;;;;;;5070259;28;20115;-69
2023/01/26 02:14:13;;;;;;;62.35;26.60;;;0.10;99.90;;;;;;5070050;28;20440;-69
2023/01/26 02:16:39;;;;;;;67.22;27.98;;;0.00;99.90;;;;;;5070497;28;20036;-69
2023/01/26 02:19:13;;;;;;;61.92;27.35;;;0.00;99.90;;;;;;5070565;28;20486;-69
2023/01/26 02:21:40;;;;;;;59.33;26.80;;;-0.10;99.90;;;;;;5069858;28;20086;-69
2023/01/26 02:24:27;;;;;;;59.88;25.60;;;0.00;99.90;;;;;;5068818;28;20070;-69
2023/01/26 02:26:53;;;;;;;66.72;28.65;;;0.00;99.90;;;;;;5068371;28;20181;-69
2023/01/26 02:29:19;;;;;;;64.45;26.83;;;0.00;99.90;;;;;;5070902;28;20025;-69
2023/01/26 02:31:45;;;;;;;72.20;28.55;;;-0.10;99.90;;;;;;5068326;28;20484;-69
2023/01/26 02:34:11;;;;;;;64.65;26.48;;;-0.10;99.90;;;;;;5068165;28;20029;-69
2023/01/26 02:36:37;;;;;;;57.50;24.48;;;0.00;99.90;;;;;;5068264;28;20067;-69
2023/01/26 02:39:19;;;;;;;60.20;25.23;;;0.00;99.90;;;;;;5068771;28;20128;-69
2023/01/26 02:44:31;;;;;;;62.53;26.15;;;-0.10;99.90;;;;;;5070638;28;20135;-69
2023/01/26 02:46:56;;;;;;;58.83;25.60;;;-0.10;99.90;;;;;;5072293;28;20025;-69
2023/01/26 02:52:06;;;;;;;58.45;25.15;;;0.00;99.90;;;;;;5070588;28;20031;-69
2023/01/26 02:57:16;;;;;;;51.10;23.38;;;0.00;99.90;;;;;;5069370;28;20156;-69
2023/01/26 02:59:42;;;;;;;52.80;23.35;;;0.00;99.90;;;;;;5071601;28;20119;-69
2023/01/26 03:02:08;;;;;;;50.10;22.10;;;0.00;99.90;;;;;;5070428;28;20450;-69
2023/01/26 03:04:34;;;;;;;52.70;23.58;;;0.00;99.90;;;;;;5071440;28;20462;-68
2023/01/26 03:06:59;;;;;;;47.67;21.80;;;-0.10;99.90;;;;;;5074895;28;20073;-68
2023/01/26 03:09:25;;;;;;;42.67;20.83;;;0.00;99.90;;;;;;5075469;28;20054;-68
2023/01/26 03:11:50;;;;;;;49.40;21.60;;;0.00;99.90;;;;;;5072334;28;20058;-69
2023/01/26 03:14:16;;;;;;;44.33;19.83;;;-0.10;99.90;;;;;;5073612;28;20035;-68
2023/01/26 03:16:42;;;;;;;46.42;21.08;;;-0.10;99.90;;;;;;5074736;28;20493;-68
2023/01/26 03:27:27;;;;;;;50.30;21.75;;;-0.20;99.90;;;;;;5076337;28;20098;-69
2023/01/26 03:29:54;;;;;;;53.97;24.20;;;-0.20;99.90;;;;;;5072097;28;20039;-69
2023/01/26 03:32:19;;;;;;;51.47;22.70;;;-0.20;99.90;;;;;;5073068;28;20111;-69
2023/01/26 03:34:45;;;;;;;57.47;23.63;;;-0.20;99.90;;;;;;5075619;28;20116;-69
2023/01/26 03:37:11;;;;;;;54.47;22.80;;;-0.10;99.90;;;;;;5076040;28;20036;-69
2023/01/26 03:56:20;;;;;;;54.80;22.65;;;-0.10;99.90;;;;;;5073030;28;20143;-69
2023/01/26 03:58:54;;;;;;;56.45;23.55;;;-0.20;99.90;;;;;;5070524;28;20442;-68
2023/01/26 04:01:26;;;;;;;58.38;23.73;;;-0.30;99.90;;;;;;5073673;28;20052;-69
2023/01/26 04:09:24;;;;;;;54.08;23.10;;;-0.30;99.90;;;;;;5071344;28;20540;-69
2023/01/26 04:11:49;;;;;;;55.90;21.50;;;-0.30;99.90;;;;;;5072754;28;20131;-69
2023/01/26 04:22:29;;;;;;;53.58;23.17;;;-0.40;99.90;;;;;;5075819;28;20039;-68
2023/01/26 04:24:56;;;;;;;51.42;22.17;;;-0.40;99.90;;;;;;5071560;28;20052;-68
2023/01/26 04:27:22;;;;;;;53.85;22.90;;;-0.30;99.90;;;;;;5073824;28;20032;-69
2023/01/26 04:29:47;;;;;;;59.60;24.40;;;-0.40;99.90;;;;;;5074231;28;20052;-69
2023/01/26 04:32:13;;;;;;;54.03;24.27;;;-0.40;99.90;;;;;;5072703;28;20480;-69
2023/01/26 04:34:39;;;;;;;53.13;22.65;;;-0.40;99.90;;;;;;5068290;28;20093;-69
2023/01/26 04:37:05;;;;;;;52.60;22.77;;;-0.40;99.90;;;;;;5072972;28;20024;-68
2023/01/26 04:39:30;;;;;;;54.30;21.98;;;-0.30;99.90;;;;;;5077502;28;20101;-69
2023/01/26 04:41:56;;;;;;;56.13;23.50;;;-0.30;99.90;;;;;;5080378;28;20032;-69
2023/01/26 04:44:21;;;;;;;55.47;23.45;;;-0.30;99.90;;;;;;5072375;28;20029;-68
2023/01/26 04:46:47;;;;;;;55.17;22.77;;;-0.30;99.90;;;;;;5081915;28;20502;-68
2023/01/26 04:49:13;;;;;;;47.70;21.05;;;-0.30;99.90;;;;;;5083850;28;20093;-70
2023/01/26 04:51:39;;;;;;;52.95;22.90;;;-0.30;99.90;;;;;;5073532;28;20036;-69
2023/01/26 04:54:05;;;;;;;55.65;23.60;;;-0.30;99.90;;;;;;5077209;28;20028;-68
2023/01/26 04:56:34;;;;;;;50.05;22.80;;;-0.30;99.90;;;;;;5076288;28;20461;-69
2023/01/26 04:59:02;;;;;;;52.50;22.65;;;-0.30;99.90;;;;;;5076254;28;20039;-69
2023/01/26 05:01:28;;;;;;;53.80;22.67;;;-0.40;99.90;;;;;;5065841;28;20025;-68
2023/01/26 05:03:54;;;;;;;52.67;23.50;;;-0.40;99.90;;;;;;5071284;28;20662;-68
2023/01/26 05:06:19;;;;;;;53.80;22.42;;;-0.40;99.90;;;;;;5079333;28;20043;-69
2023/01/26 05:08:45;;;;;;;57.58;23.65;;;-0.40;99.90;;;;;;5076012;28;20469;-68
2023/01/26 05:11:11;;;;;;;50.25;21.88;;;-0.50;99.90;;;;;;5073941;28;20033;-67
2023/01/26 05:13:36;;;;;;;52.85;21.40;;;-0.40;99.90;;;;;;5068670;28;20036;-67
2023/01/26 05:16:03;;;;;;;53.42;22.80;;;-0.40;99.90;;;;;;5072706;28;20041;-67
2023/01/26 05:18:29;;;;;;;56.10;23.60;;;-0.50;99.90;;;;;;5072047;28;20063;-70
2023/01/26 05:20:55;;;;;;;54.20;22.58;;;-0.50;99.90;;;;;;5070614;28;20040;-67
2023/01/26 05:23:21;;;;;;;55.03;23.80;;;-0.50;99.90;;;;;;5071798;28;20027;-69
2023/01/26 05:25:47;;;;;;;59.63;23.88;;;-0.50;99.90;;;;;;5080965;28;20122;-69
2023/01/26 05:28:12;;;;;;;55.65;23.63;;;-0.50;99.90;;;;;;5094028;28;20116;-70
2023/01/26 05:30:38;;;;;;;51.75;24.30;;;-0.50;99.90;;;;;;5089816;28;20047;-67
2023/01/26 05:33:05;;;;;;;52.58;22.20;;;-0.50;99.90;;;;;;5092609;28;20036;-68
2023/01/26 05:35:31;;;;;;;50.90;23.95;;;-0.40;99.90;;;;;;5095137;28;20054;-68
2023/01/26 05:37:57;;;;;;;55.92;23.02;;;-0.50;99.90;;;;;;5102557;28;20028;-68
2023/01/26 05:40:23;;;;;;;53.08;22.40;;;-0.50;99.90;;;;;;5085489;28;20039;-68
2023/01/26 05:42:49;;;;;;;60.10;24.45;;;-0.60;99.90;;;;;;5095993;28;20480;-70
2023/01/26 05:45:15;;;;;;;59.83;23.67;;;-0.60;99.90;;;;;;5093412;28;20035;-69
2023/01/26 05:47:43;;;;;;;54.08;23.58;;;-0.60;99.90;;;;;;5091768;28;20020;-69
2023/01/26 05:50:10;;;;;;;52.85;22.25;;;-0.70;99.90;;;;;;5090995;28;20028;-68
2023/01/26 05:52:36;;;;;;;43.63;20.13;;;-0.60;99.90;;;;;;5090639;28;20020;-68
2023/01/26 05:55:02;;;;;;;51.53;20.63;;;-0.50;99.90;;;;;;5090848;28;20051;-69
2023/01/26 05:57:28;;;;;;;44.92;20.77;;;-0.50;99.90;;;;;;5093536;28;20109;-68
2023/01/26 05:59:53;;;;;;;46.75;20.92;;;-0.50;99.90;;;;;;5089821;28;20052;-68
2023/01/26 06:02:19;;;;;;;47.33;19.60;;;-0.50;99.90;;;;;;5086481;28;20031;-69
2023/01/26 06:04:45;;;;;;;93.65;36.08;;;-0.50;99.90;;;;;;5090106;28;20423;-67
2023/01/26 06:07:12;;;;;;;53.05;21.77;;;-0.60;99.90;;;;;;5100663;28;20050;-66
2023/01/26 06:09:38;;;;;;;48.22;22.20;;;-0.50;99.90;;;;;;5091181;28;20024;-68
2023/01/26 06:12:04;;;;;;;46.03;20.85;;;-0.50;99.90;;;;;;5090754;28;20032;-68
2023/01/26 06:14:30;;;;;;;44.97;20.80;;;-0.60;99.90;;;;;;5092916;28;20036;-68
2023/01/26 06:16:56;;;;;;;45.20;20.60;;;-0.50;99.90;;;;;;5094579;28;20496;-68
2023/01/26 06:19:21;;;;;;;46.25;20.10;;;-0.50;99.90;;;;;;5090119;28;20050;-68
2023/01/26 06:21:47;;;;;;;48.53;20.95;;;-0.50;99.90;;;;;;5092270;28;20027;-68
2023/01/26 06:24:13;;;;;;;54.78;22.08;;;-0.60;99.90;;;;;;5091859;28;20031;-68
2023/01/26 06:26:38;;;;;;;50.20;20.60;;;-0.60;99.90;;;;;;5092036;28;20123;-67
2023/01/26 06:29:05;;;;;;;45.95;19.27;;;-0.60;99.90;;;;;;5090208;28;20472;-69
2023/01/26 06:31:30;;;;;;;47.58;21.55;;;-0.60;99.90;;;;;;5095737;28;20020;-65
2023/01/26 06:33:56;;;;;;;49.55;21.55;;;-0.60;99.90;;;;;;5101487;28;20083;-65
2023/01/26 06:36:22;;;;;;;46.72;22.13;;;-0.60;99.90;;;;;;5090903;28;20146;-65
2023/01/26 06:38:49;;;;;;;48.70;21.77;;;-0.70;99.90;;;;;;5105569;28;20024;-66
2023/01/26 06:41:15;;;;;;;45.20;21.60;;;-0.60;99.90;;;;;;5096570;28;20020;-65
2023/01/26 06:43:45;;;;;;;47.33;20.85;;;-0.60;99.90;;;;;;5093601;28;20562;-65
2023/01/26 06:46:11;;;;;;;50.22;22.02;;;-0.60;99.90;;;;;;5097990;28;20038;-66
2023/01/26 06:48:37;;;;;;;47.75;20.45;;;-0.70;99.90;;;;;;5099187;28;20056;-66
2023/01/26 06:51:15;;;;;;;48.47;21.63;;;-0.70;99.90;;;;;;5094771;28;20402;-67
2023/01/26 06:53:56;;;;;;;44.72;20.08;;;-0.70;99.90;;;;;;5093515;28;20031;-67
2023/01/26 06:56:23;;;;;;;47.67;20.95;;;-0.70;99.90;;;;;;5096949;28;20048;-67
2023/01/26 06:58:49;;;;;;;47.80;20.23;;;-0.70;99.90;;;;;;5099477;28;20031;-66
2023/01/26 07:01:23;;;;;;;47.45;20.67;;;-0.70;99.90;;;;;;5095248;28;20106;-66
2023/01/26 07:03:53;;;;;;;51.05;21.67;;;-0.70;99.90;;;;;;5094023;28;20035;-66
2023/01/26 07:06:20;;;;;;;45.78;20.95;;;-0.70;99.90;;;;;;5095399;28;20035;-68
2023/01/26 07:08:45;;;;;;;42.92;19.67;;;-0.70;99.90;;;;;;5099490;28;20385;-68
2023/01/26 07:11:12;;;;;;;40.08;20.08;;;-0.70;99.90;;;;;;5093491;28;20024;-72
2023/01/26 07:13:38;;;;;;;44.72;20.20;;;-0.70;99.90;;;;;;5086934;28;20027;-66
2023/01/26 07:16:15;;;;;;;46.10;21.50;;;-0.70;99.90;;;;;;5096074;28;20439;-68
2023/01/26 07:18:41;;;;;;;46.38;21.23;;;-0.80;99.90;;;;;;5086316;28;20415;-68
2023/01/26 07:21:11;;;;;;;51.38;22.10;;;-0.90;99.90;;;;;;5099815;28;20028;-73
2023/01/26 07:23:36;;;;;;;47.45;21.67;;;-0.90;99.90;;;;;;5093968;28;20036;-68
2023/01/26 07:26:03;;;;;;;47.38;21.60;;;-0.90;99.90;;;;;;5096584;28;20047;-68
2023/01/26 07:28:33;;;;;;;45.10;20.92;;;-0.80;99.90;;;;;;5097204;28;20115;-67
2023/01/26 07:30:59;;;;;;;44.30;19.38;;;-0.70;99.90;;;;;;5095827;28;20453;-67
2023/01/26 07:33:26;;;;;;;45.45;20.50;;;-0.70;99.90;;;;;;5096122;28;20477;-69
2023/01/26 07:35:53;;;;;;;48.08;20.33;;;-0.80;99.90;;;;;;5096818;28;20559;-68
2023/01/26 07:38:18;;;;;;;42.72;20.75;;;-0.70;99.90;;;;;;5103319;28;20054;-69
2023/01/26 07:40:44;;;;;;;45.70;18.42;;;-0.70;99.90;;;;;;5089017;28;20031;-68
2023/01/26 07:43:10;;;;;;;41.00;19.20;;;-0.70;99.90;;;;;;5095066;28;20393;-68
2023/01/26 07:45:36;;;;;;;48.65;20.25;;;-0.80;99.90;;;;;;5080631;28;20076;-68
2023/01/26 07:48:01;;;;;;;45.72;19.85;;;-0.90;99.90;;;;;;5097961;28;20435;-68
2023/01/26 07:50:27;;;;;;;47.38;20.88;;;-0.80;99.90;;;;;;5105487;28;20042;-66
2023/01/26 07:52:53;;;;;;;44.00;20.83;;;-0.80;99.90;;;;;;5091520;28;20154;-66
2023/01/26 07:55:19;;;;;;;42.28;20.70;;;-0.80;99.90;;;;;;5096775;28;20051;-66
2023/01/26 07:57:48;;;;;;;42.80;19.88;;;-0.80;99.90;;;;;;5084610;28;20511;-66
2023/01/26 08:00:15;;;;;;;46.25;19.35;;;-0.80;99.90;;;;;;5098801;28;20110;-66
2023/01/26 08:02:40;;;;;;;46.95;20.20;;;-0.80;99.90;;;;;;5092411;28;20024;-67
2023/01/26 08:05:06;;;;;;;46.22;20.08;;;-0.80;99.90;;;;;;5095510;28;20031;-66
2023/01/26 08:07:32;;;;;;;43.20;18.67;;;-0.80;99.90;;;;;;5093399;28;20072;-67
2023/01/26 08:09:58;;;;;;;41.63;18.17;;;-0.80;99.90;;;;;;5092548;28;20032;-66
2023/01/26 08:12:24;;;;;;;41.47;18.65;;;-0.80;99.90;;;;;;5093502;28;20023;-67
2023/01/26 08:14:49;;;;;;;43.65;18.73;;;-0.80;99.90;;;;;;5091082;28;20034;-66
2023/01/26 08:17:16;;;;;;;40.10;18.17;;;-0.70;99.90;;;;;;5095782;28;20024;-66
2023/01/26 08:19:42;;;;;;;40.90;19.30;;;-0.70;99.90;;;;;;5092004;28;20031;-66
2023/01/26 08:22:08;;;;;;;38.33;17.55;;;-0.70;99.90;;;;;;5092129;28;20040;-66
2023/01/26 08:24:33;;;;;;;39.85;16.67;;;-0.70;99.90;;;;;;5092111;28;20032;-66
2023/01/26 08:26:59;;;;;;;32.53;16.42;;;-0.70;99.90;;;;;;5093690;28;20768;-67
2023/01/26 08:29:25;;;;;;;35.70;16.52;;;-0.70;99.90;;;;;;5093097;28;20036;-66
2023/01/26 08:31:50;;;;;;;31.35;15.15;;;-0.70;99.90;;;;;;5094828;28;20032;-66
2023/01/26 08:34:16;;;;;;;34.67;15.82;;;-0.70;99.90;;;;;;5096993;28;20026;-66
2023/01/26 08:36:42;;;;;;;34.80;15.80;;;-0.70;99.90;;;;;;5078570;28;20089;-66
2023/01/26 08:39:08;;;;;;;33.20;15.82;;;-0.70;99.90;;;;;;5076832;28;20031;-66
2023/01/26 08:41:34;;;;;;;37.03;17.55;;;-0.70;99.90;;;;;;5092105;28;20031;-66
2023/01/26 08:43:59;;;;;;;37.65;16.20;;;-0.80;99.90;;;;;;5092210;28;20077;-66
2023/01/26 08:46:25;;;;;;;30.92;14.63;;;-0.80;99.90;;;;;;5093065;28;20032;-66
2023/01/26 08:48:51;;;;;;;39.60;16.30;;;-0.70;99.90;;;;;;5091397;28;20073;-66
2023/01/26 08:51:17;;;;;;;34.63;16.00;;;-0.60;99.90;;;;;;5095867;28;20028;-66
2023/01/26 08:53:43;;;;;;;32.22;16.17;;;-0.60;99.90;;;;;;5091023;28;20039;-65
2023/01/26 08:56:11;;;;;;;32.42;14.70;;;-0.60;99.90;;;;;;5091999;28;20047;-65
2023/01/26 08:58:37;;;;;;;24.45;11.88;;;-0.60;99.90;;;;;;5091053;28;20020;-66
2023/01/26 09:01:05;;;;;;;23.35;12.18;;;-0.60;99.90;;;;;;5087694;28;20055;-66
2023/01/26 09:03:30;;;;;;;28.17;12.65;;;-0.50;99.90;;;;;;5088856;28;20035;-66
2023/01/26 09:06:00;;;;;;;23.40;11.32;;;-0.60;99.90;;;;;;5073179;28;20036;-66
2023/01/26 09:08:25;;;;;;;24.27;11.77;;;-0.50;99.90;;;;;;5092664;28;20097;-66
2023/01/26 09:10:51;;;;;;;21.98;11.30;;;-0.50;99.90;;;;;;5091260;28;20751;-66
2023/01/26 09:13:16;;;;;;;24.75;12.52;;;-0.50;99.90;;;;;;5091330;28;20074;-66
2023/01/26 09:15:42;;;;;;;27.52;13.52;;;-0.60;99.90;;;;;;5091163;28;20040;-66
2023/01/26 09:18:09;;;;;;;26.17;12.98;;;-0.60;99.90;;;;;;5092412;28;20087;-66
2023/01/26 09:20:36;;;;;;;26.63;13.82;;;-0.60;99.90;;;;;;5090806;28;20027;-67
2023/01/26 09:23:02;;;;;;;28.92;13.90;;;-0.70;99.90;;;;;;5091906;28;20035;-66
2023/01/26 09:25:28;;;;;;;30.05;13.77;;;-0.70;99.90;;;;;;5091339;28;20056;-66
2023/01/26 09:27:53;;;;;;;30.58;14.38;;;-0.50;99.90;;;;;;5100320;28;20020;-66
2023/01/26 09:30:19;;;;;;;30.40;14.95;;;-0.40;99.90;;;;;;5089790;28;20423;-66
2023/01/26 09:32:45;;;;;;;30.02;14.68;;;-0.30;99.90;;;;;;5090310;28;20036;-66
2023/01/26 09:35:10;;;;;;;30.23;15.13;;;-0.30;99.90;;;;;;5100121;28;20035;-66
2023/01/26 09:37:37;;;;;;;28.88;14.52;;;-0.40;99.90;;;;;;5085359;28;20043;-66
2023/01/26 09:40:04;;;;;;;33.00;15.02;;;-0.50;99.90;;;;;;5091187;28;20627;-66
2023/01/26 09:42:42;;;;;;;34.85;16.52;;;-0.40;99.90;;;;;;5099789;28;20039;-66
2023/01/26 09:45:21;;;;;;;34.45;15.18;;;-0.30;99.90;;;;;;5099375;28;20484;-66
2023/01/26 09:48:14;;;;;;;36.95;18.00;;;-0.30;99.90;;;;;;5082839;28;20016;-66
2023/01/26 09:51:05;;;;;;;28.00;14.75;;;-0.30;99.90;;;;;;5090230;28;20032;-66
2023/01/26 09:53:58;;;;;;;28.95;13.68;;;-0.40;99.90;;;;;;5091572;28;20016;-66
2023/01/26 09:56:31;;;;;;;33.42;14.27;;;-0.40;99.90;;;;;;5087975;28;20040;-66
2023/01/26 09:59:31;;;;;;;29.70;13.90;;;-0.30;99.90;;;;;;5086685;28;20024;-66
2023/01/26 10:02:21;;;;;;;34.67;15.30;;;-0.30;99.90;;;;;;5099229;28;20020;-66
2023/01/26 10:04:48;;;;;;;;;;;-0.30;99.90;;;;;;5089383;28;20028;-66
2023/01/26 10:07:14;;;;;;;28.92;13.35;;;-0.30;99.90;;;;;;5091210;28;19907;-66
2023/01/26 10:09:44;;;;;;;25.35;13.23;;;-0.30;99.90;;;;;;5090005;28;20024;-66
2023/01/26 10:12:33;;;;;;;27.08;13.95;;;-0.20;99.90;;;;;;5091258;28;20401;-66
2023/01/26 10:15:09;;;;;;;29.73;13.45;;;-0.30;99.90;;;;;;5085932;28;20020;-66
2023/01/26 10:17:39;;;;;;;29.48;14.38;;;-0.20;99.90;;;;;;5090609;28;20073;-66
2023/01/26 10:20:05;;;;;;;;;;;-0.30;99.90;;;;;;5094542;28;20042;-66
2023/01/26 10:22:43;;;;;;;32.58;14.07;;;-0.30;99.90;;;;;;5089220;28;19904;-65
2023/01/26 10:25:18;;;;;;;26.55;13.18;;;-0.40;99.90;;;;;;5086280;28;20056;-64
2023/01/26 10:27:45;;;;;;;25.75;12.80;;;-0.40;99.90;;;;;;5070325;28;20059;-65
2023/01/26 10:30:16;;;;;;;23.23;11.85;;;-0.30;99.90;;;;;;5070077;28;20414;-65
2023/01/26 10:32:44;;;;;;;22.60;10.73;;;-0.30;99.90;;;;;;5069706;28;20445;-65
2023/01/26 10:35:20;;;;;;;22.35;10.93;;;-0.30;99.90;;;;;;5070025;28;20036;-65
2023/01/26 10:37:46;;;;;;;19.73;9.50;;;-0.30;99.90;;;;;;5059479;28;20029;-66
2023/01/26 10:40:12;;;;;;;21.27;10.13;;;-0.30;99.90;;;;;;5067739;28;20029;-66
2023/01/26 10:42:40;;;;;;;13.70;7.80;;;-0.20;99.90;;;;;;5070173;28;20365;-66
2023/01/26 10:45:22;;;;;;;16.30;8.65;;;-0.20;99.90;;;;;;5070240;28;20028;-65
2023/01/26 10:48:18;;;;;;;15.98;8.88;;;-0.10;99.90;;;;;;5061668;28;20480;-66
2023/01/26 10:50:45;;;;;;;18.58;8.82;;;-0.10;99.90;;;;;;5051341;28;20102;-65
2023/01/26 10:53:28;;;;;;;19.15;9.52;;;-0.10;99.90;;;;;;5061135;28;20761;-66
2023/01/26 10:56:16;;;;;;;17.52;8.90;;;-0.10;99.90;;;;;;5076320;28;20648;-66
2023/01/26 10:58:56;;;;;;;19.65;9.27;;;-0.10;99.90;;;;;;5068189;28;20025;-66
2023/01/26 11:01:26;;;;;;;19.38;8.93;;;-0.10;99.90;;;;;;5070149;28;20025;-66
2023/01/26 11:03:59;;;;;;;;;;;-0.10;99.90;;;;;;5069885;28;20036;-66
2023/01/26 11:06:28;;;;;;;17.83;9.25;;;-0.10;99.90;;;;;;5070263;28;20003;-65
2023/01/26 11:09:13;;;;;;;19.70;10.05;;;-0.20;99.90;;;;;;5057485;28;20858;-66
2023/01/26 11:11:40;;;;;;;19.40;9.25;;;-0.10;99.90;;;;;;5058716;28;20086;-66
2023/01/26 11:14:17;;;;;;;23.95;11.15;;;-0.20;99.90;;;;;;5070555;28;20108;-66
2023/01/26 11:17:18;;;;;;;21.08;10.25;;;-0.20;99.90;;;;;;5070335;28;20041;-66
2023/01/26 11:20:06;;;;;;;26.42;12.55;;;-0.10;99.90;;;;;;5069454;28;20063;-67
2023/01/26 11:23:00;;;;;;;19.88;10.48;;;-0.20;99.90;;;;;;5072421;28;20036;-67
2023/01/26 11:25:41;;;;;;;24.48;12.82;;;-0.20;99.90;;;;;;5073345;28;20074;-69
2023/01/26 11:28:25;;;;;;;20.42;11.23;;;-0.30;99.90;;;;;;5069288;28;20049;-71
2023/01/26 11:31:05;;;;;;;22.17;11.30;;;-0.40;99.90;;;;;;5071927;28;20138;-68
2023/01/26 11:33:52;;;;;;;23.27;10.57;;;-0.30;99.90;;;;;;5073400;28;20032;-68
2023/01/26 11:36:30;;;;;;;22.23;10.18;;;-0.30;99.90;;;;;;5073916;28;20086;-68
2023/01/26 11:39:15;;;;;;;23.35;11.13;;;-0.30;99.90;;;;;;5070278;28;20078;-68
2023/01/26 11:42:00;;;;;;;26.80;11.65;;;-0.40;99.90;;;;;;5072849;28;20029;-69
2023/01/26 11:45:13;;;;;;;25.13;11.35;;;-0.40;99.90;;;;;;5073114;28;20079;-72
2023/01/26 11:47:38;;;;;;;23.42;11.05;;;-0.40;99.90;;;;;;5062784;28;20056;-73
2023/01/26 11:50:18;;;;;;;22.38;10.00;;;-0.40;99.90;;;;;;5073124;28;20067;-73
2023/01/26 11:53:21;;;;;;;21.85;10.80;;;-0.40;99.90;;;;;;5066934;28;20080;-74
2023/01/26 11:55:50;;;;;;;24.92;11.52;;;-0.50;99.90;;;;;;5058012;28;20037;-73
2023/01/26 11:58:34;;;;;;;22.40;10.65;;;-0.40;99.90;;;;;;5053046;28;20061;-68
2023/01/26 12:01:12;;;;;;;27.92;11.32;;;-0.40;99.90;;;;;;5056761;28;20037;-69
2023/01/26 12:03:49;;;;;;;24.30;11.23;;;-0.40;99.90;;;;;;5060196;28;20024;-71
2023/01/26 12:06:19;;;;;;;24.77;12.18;;;-0.50;99.90;;;;;;5061672;28;20063;-70
2023/01/26 12:08:53;;;;;;;27.35;12.63;;;-0.50;99.90;;;;;;5070745;28;20026;-70
2023/01/26 12:11:39;;;;;;;25.42;10.48;;;-0.40;99.90;;;;;;5073082;28;20031;-70
2023/01/26 12:14:11;;;;;;;20.40;10.70;;;-0.30;99.90;;;;;;5072711;28;20033;-70
2023/01/26 12:16:50;;;;;;;21.42;10.00;;;-0.30;99.90;;;;;;5062087;28;20024;-70
2023/01/26 12:19:44;;;;;;;27.50;11.43;;;-0.40;99.90;;;;;;5071415;28;20033;-70
2023/01/26 12:22:28;;;;;;;23.73;11.70;;;-0.30;99.90;;;;;;5056468;28;20045;-70
2023/01/26 12:25:00;;;;;;;27.08;13.48;;;-0.20;99.90;;;;;;5075355;28;20119;-70
2023/01/26 12:27:40;;;;;;;27.60;12.75;;;-0.20;99.90;;;;;;5093148;28;20032;-69
2023/01/26 12:30:44;;;;;;;30.80;13.68;;;-0.20;99.90;;;;;;5092866;28;20028;-70
2023/01/26 12:33:10;;;;;;;29.05;12.82;;;-0.30;99.90;;;;;;5094036;28;20028;-69
2023/01/26 12:35:50;;;;;;;24.48;12.77;;;-0.30;99.90;;;;;;5091197;28;20032;-70
2023/01/26 12:38:27;;;;;;;23.58;10.57;;;-0.30;99.90;;;;;;5090623;28;20024;-70
2023/01/26 12:41:17;;;;;;;18.17;8.73;;;-0.30;99.90;;;;;;5091721;28;20681;-69
2023/01/26 12:43:59;;;;;;;21.17;10.15;;;-0.30;99.90;;;;;;5091667;28;20162;-69
2023/01/26 12:46:30;;;;;;;25.50;11.48;;;-0.30;99.90;;;;;;5092877;28;20036;-69
2023/01/26 12:49:14;;;;;;;23.05;10.02;;;-0.40;99.90;;;;;;5091331;28;20017;-69
2023/01/26 12:51:46;;;;;;;23.17;10.55;;;-0.40;99.90;;;;;;5090023;28;20035;-70
2023/01/26 12:54:12;;;;;;;25.60;12.02;;;-0.40;99.90;;;;;;5091057;28;20024;-70
2023/01/26 12:56:46;;;;;;;30.08;13.55;;;-0.40;99.90;;;;;;5073545;28;20035;-71
2023/01/26 12:59:19;;;;;;;28.10;13.00;;;-0.50;99.90;;;;;;5084543;28;20052;-70
2023/01/26 13:01:45;;;;;;;28.10;13.13;;;-0.40;99.90;;;;;;5092962;28;20497;-70
2023/01/26 13:04:14;;;;;;;28.85;14.07;;;-0.30;99.90;;;;;;5100082;28;20021;-69
2023/01/26 13:06:40;;;;;;;28.33;14.68;;;-0.30;99.90;;;;;;5091858;28;20169;-69
2023/01/26 13:09:22;;;;;;;30.10;13.50;;;-0.30;99.90;;;;;;5091348;28;20035;-69
2023/01/26 13:11:53;;;;;;;29.10;14.10;;;-0.30;99.90;;;;;;5086913;28;20380;-69
2023/01/26 13:14:33;;;;;;;31.52;14.65;;;-0.30;99.90;;;;;;5083637;28;20024;-68
2023/01/26 13:17:19;;;;;;;32.50;15.50;;;-0.40;99.90;;;;;;5087212;28;20028;-68
2023/01/26 13:19:44;;;;;;;29.95;13.98;;;-0.40;99.90;;;;;;5090564;28;20031;-68
2023/01/26 13:22:22;;;;;;;37.05;16.70;;;-0.50;99.90;;;;;;5093472;28;20028;-68
2023/01/26 13:24:54;;;;;;;34.35;15.43;;;-0.50;99.90;;;;;;5090498;28;20048;-68
2023/01/26 13:27:38;;;;;;;33.95;17.58;;;-0.60;99.90;;;;;;5084746;28;20166;-69
2023/01/26 13:30:25;;;;;;;36.92;16.95;;;-0.60;99.90;;;;;;5087692;28;20035;-68
2023/01/26 13:33:20;;;;;;;37.15;16.67;;;-0.60;99.90;;;;;;5089905;28;20057;-68